sensor_id;sensor_type;location;lat;lon;timestamp;pressure;altitude;pressure_sealevel;temperature;humidity
79663;BME280;69130;48.724;8.982;2023-06-26T00:00:48;96482.22;;;17.46;69.55
79663;BME280;69130;48.724;8.982;2023-06-26T00:03:13;96489.16;;;17.39;70.54
79663;BME280;69130;48.724;8.982;2023-06-26T00:05:40;96483.94;;;17.38;71.77
79663;BME280;69130;48.724;8.982;2023-06-26T00:08:06;96485.34;;;17.32;72.09
79663;BME280;69130;48.724;8.982;2023-06-26T00:10:31;96482.28;;;17.27;72.31
79663;BME280;69130;48.724;8.982;2023-06-26T00:12:57;96484.41;;;17.24;73.00
79663;BME280;69130;48.724;8.982;2023-06-26T00:15:22;96484.81;;;17.19;72.74
79663;BME280;69130;48.724;8.982;2023-06-26T00:17:47;96494.28;;;17.14;73.58
79663;BME280;69130;48.724;8.982;2023-06-26T00:20:13;96494.69;;;17.09;74.49
79663;BME280;69130;48.724;8.982;2023-06-26T00:22:39;96492.91;;;17.00;73.58
79663;BME280;69130;48.724;8.982;2023-06-26T00:25:06;96486.53;;;17.01;73.73
79663;BME280;69130;48.724;8.982;2023-06-26T00:27:32;96487.13;;;16.95;74.95
79663;BME280;69130;48.724;8.982;2023-06-26T00:29:57;96492.06;;;16.90;75.07
79663;BME280;69130;48.724;8.982;2023-06-26T00:32:22;96488.69;;;16.88;75.06
79663;BME280;69130;48.724;8.982;2023-06-26T00:34:48;96493.03;;;16.89;75.59
79663;BME280;69130;48.724;8.982;2023-06-26T00:37:13;96486.97;;;16.87;75.40
79663;BME280;69130;48.724;8.982;2023-06-26T00:39:38;96478.56;;;16.82;74.94
79663;BME280;69130;48.724;8.982;2023-06-26T00:42:04;96490.09;;;16.83;75.84
79663;BME280;69130;48.724;8.982;2023-06-26T00:44:29;96487.28;;;16.84;76.25
79663;BME280;69130;48.724;8.982;2023-06-26T00:46:55;96483.47;;;16.77;75.45
79663;BME280;69130;48.724;8.982;2023-06-26T00:49:20;96493.91;;;16.71;75.43
79663;BME280;69130;48.724;8.982;2023-06-26T00:51:46;96489.69;;;16.68;74.98
79663;BME280;69130;48.724;8.982;2023-06-26T00:54:11;96482.50;;;16.69;75.18
79663;BME280;69130;48.724;8.982;2023-06-26T00:56:37;96483.94;;;16.63;75.31
79663;BME280;69130;48.724;8.982;2023-06-26T00:59:03;96487.56;;;16.62;75.60
79663;BME280;69130;48.724;8.982;2023-06-26T01:01:28;96493.63;;;16.64;76.73
79663;BME280;69130;48.724;8.982;2023-06-26T01:03:53;96486.00;;;16.59;76.12
79663;BME280;69130;48.724;8.982;2023-06-26T01:06:21;96488.28;;;16.54;76.30
79663;BME280;69130;48.724;8.982;2023-06-26T01:08:47;96483.19;;;16.51;76.68
79663;BME280;69130;48.724;8.982;2023-06-26T01:11:14;96482.59;;;16.48;76.52
79663;BME280;69130;48.724;8.982;2023-06-26T01:13:41;96485.72;;;16.43;76.30
79663;BME280;69130;48.724;8.982;2023-06-26T01:16:08;96485.13;;;16.40;76.95
79663;BME280;69130;48.724;8.982;2023-06-26T01:18:35;96475.44;;;16.39;77.59
79663;BME280;69130;48.724;8.982;2023-06-26T01:21:03;96483.88;;;16.34;77.95
79663;BME280;69130;48.724;8.982;2023-06-26T01:28:34;96481.88;;;16.27;78.88
79663;BME280;69130;48.724;8.982;2023-06-26T01:31:00;96472.88;;;16.28;79.41
79663;BME280;69130;48.724;8.982;2023-06-26T01:33:26;96471.34;;;16.25;79.80
79663;BME280;69130;48.724;8.982;2023-06-26T01:35:52;96474.16;;;16.24;80.09
79663;BME280;69130;48.724;8.982;2023-06-26T01:38:19;96468.81;;;16.24;80.45
79663;BME280;69130;48.724;8.982;2023-06-26T01:40:46;96470.91;;;16.20;81.22
79663;BME280;69130;48.724;8.982;2023-06-26T01:46:10;96466.00;;;16.16;81.45
79663;BME280;69130;48.724;8.982;2023-06-26T01:48:46;96471.91;;;16.10;81.07
79663;BME280;69130;48.724;8.982;2023-06-26T01:51:17;96460.09;;;16.12;81.82
79663;BME280;69130;48.724;8.982;2023-06-26T01:53:46;96455.75;;;16.11;82.17
79663;BME280;69130;48.724;8.982;2023-06-26T01:56:17;96454.19;;;16.09;82.54
79663;BME280;69130;48.724;8.982;2023-06-26T01:58:46;96446.56;;;16.04;82.66
79663;BME280;69130;48.724;8.982;2023-06-26T02:01:12;96458.81;;;15.97;82.10
79663;BME280;69130;48.724;8.982;2023-06-26T02:03:37;96453.75;;;15.94;82.28
79663;BME280;69130;48.724;8.982;2023-06-26T02:06:03;96456.13;;;15.88;82.16
79663;BME280;69130;48.724;8.982;2023-06-26T02:08:28;96450.63;;;15.80;82.67
79663;BME280;69130;48.724;8.982;2023-06-26T02:10:53;96460.72;;;15.76;83.21
79663;BME280;69130;48.724;8.982;2023-06-26T02:13:19;96460.13;;;15.72;82.67
79663;BME280;69130;48.724;8.982;2023-06-26T02:15:44;96466.06;;;15.76;83.21
79663;BME280;69130;48.724;8.982;2023-06-26T02:18:09;96463.78;;;15.71;83.26
79663;BME280;69130;48.724;8.982;2023-06-26T02:20:35;96467.69;;;15.67;83.10
79663;BME280;69130;48.724;8.982;2023-06-26T02:23:01;96461.53;;;15.67;83.70
79663;BME280;69130;48.724;8.982;2023-06-26T02:25:26;96467.31;;;15.72;83.92
79663;BME280;69130;48.724;8.982;2023-06-26T02:27:51;96464.09;;;15.78;84.34
79663;BME280;69130;48.724;8.982;2023-06-26T02:30:17;96459.59;;;15.79;84.32
79663;BME280;69130;48.724;8.982;2023-06-26T02:32:42;96458.63;;;15.80;84.85
79663;BME280;69130;48.724;8.982;2023-06-26T02:35:08;96456.09;;;15.78;85.09
79663;BME280;69130;48.724;8.982;2023-06-26T02:37:33;96458.31;;;15.73;85.08
79663;BME280;69130;48.724;8.982;2023-06-26T02:39:59;96461.84;;;15.73;85.03
79663;BME280;69130;48.724;8.982;2023-06-26T02:42:24;96467.56;;;15.69;84.59
79663;BME280;69130;48.724;8.982;2023-06-26T02:44:49;96463.94;;;15.70;85.06
79663;BME280;69130;48.724;8.982;2023-06-26T02:47:15;96462.78;;;15.72;85.59
79663;BME280;69130;48.724;8.982;2023-06-26T02:49:40;96458.75;;;15.68;85.80
79663;BME280;69130;48.724;8.982;2023-06-26T02:52:06;96453.50;;;15.67;85.25
79663;BME280;69130;48.724;8.982;2023-06-26T02:54:31;96460.69;;;15.66;85.43
79663;BME280;69130;48.724;8.982;2023-06-26T02:56:57;96453.34;;;15.59;84.99
79663;BME280;69130;48.724;8.982;2023-06-26T02:59:24;96457.25;;;15.55;85.10
79663;BME280;69130;48.724;8.982;2023-06-26T03:01:49;96461.88;;;15.53;85.18
79663;BME280;69130;48.724;8.982;2023-06-26T03:04:15;96458.09;;;15.46;85.28
79663;BME280;69130;48.724;8.982;2023-06-26T03:06:42;96460.75;;;15.46;85.48
79663;BME280;69130;48.724;8.982;2023-06-26T03:09:08;96467.22;;;15.53;85.55
79663;BME280;69130;48.724;8.982;2023-06-26T03:11:33;96463.19;;;15.58;85.52
79663;BME280;69130;48.724;8.982;2023-06-26T03:13:58;96465.31;;;15.64;85.31
79663;BME280;69130;48.724;8.982;2023-06-26T03:16:24;96466.47;;;15.71;85.48
79663;BME280;69130;48.724;8.982;2023-06-26T03:18:49;96472.53;;;15.83;85.34
79663;BME280;69130;48.724;8.982;2023-06-26T03:21:14;96464.25;;;15.86;84.91
79663;BME280;69130;48.724;8.982;2023-06-26T03:23:40;96464.13;;;15.88;84.63
79663;BME280;69130;48.724;8.982;2023-06-26T03:26:05;96466.09;;;15.86;84.40
79663;BME280;69130;48.724;8.982;2023-06-26T03:28:30;96464.66;;;15.82;84.31
79663;BME280;69130;48.724;8.982;2023-06-26T03:30:56;96459.59;;;15.79;84.24
79663;BME280;69130;48.724;8.982;2023-06-26T03:33:22;96466.34;;;15.83;83.86
79663;BME280;69130;48.724;8.982;2023-06-26T03:35:47;96462.84;;;15.82;84.30
79663;BME280;69130;48.724;8.982;2023-06-26T03:38:12;96460.34;;;15.90;83.73
79663;BME280;69130;48.724;8.982;2023-06-26T03:40:38;96468.38;;;16.00;83.62
79663;BME280;69130;48.724;8.982;2023-06-26T03:43:03;96464.44;;;16.04;83.47
79663;BME280;69130;48.724;8.982;2023-06-26T03:45:28;96462.47;;;16.06;83.01
79663;BME280;69130;48.724;8.982;2023-06-26T03:47:54;96462.75;;;16.03;82.84
79663;BME280;69130;48.724;8.982;2023-06-26T03:50:19;96462.31;;;15.98;82.98
79663;BME280;69130;48.724;8.982;2023-06-26T03:52:45;96466.13;;;16.05;82.27
79663;BME280;69130;48.724;8.982;2023-06-26T03:55:11;96462.75;;;16.12;82.56
79663;BME280;69130;48.724;8.982;2023-06-26T03:57:36;96465.72;;;16.19;82.16
79663;BME280;69130;48.724;8.982;2023-06-26T04:00:02;96467.28;;;16.21;81.75
79663;BME280;69130;48.724;8.982;2023-06-26T04:02:33;96465.56;;;16.20;82.05
79663;BME280;69130;48.724;8.982;2023-06-26T04:04:58;96462.78;;;16.22;81.29
79663;BME280;69130;48.724;8.982;2023-06-26T04:07:23;96469.09;;;16.21;81.57
79663;BME280;69130;48.724;8.982;2023-06-26T04:09:49;96467.53;;;16.18;81.80
79663;BME280;69130;48.724;8.982;2023-06-26T04:12:15;96466.28;;;16.13;81.92
79663;BME280;69130;48.724;8.982;2023-06-26T04:14:40;96466.41;;;16.11;81.65
79663;BME280;69130;48.724;8.982;2023-06-26T04:17:05;96467.53;;;16.09;82.18
79663;BME280;69130;48.724;8.982;2023-06-26T04:19:31;96476.09;;;16.12;82.19
79663;BME280;69130;48.724;8.982;2023-06-26T04:21:56;96468.94;;;16.22;82.37
79663;BME280;69130;48.724;8.982;2023-06-26T04:24:22;96475.84;;;16.25;82.28
79663;BME280;69130;48.724;8.982;2023-06-26T04:26:47;96472.47;;;16.32;82.25
79663;BME280;69130;48.724;8.982;2023-06-26T04:29:13;96475.44;;;16.39;81.58
79663;BME280;69130;48.724;8.982;2023-06-26T04:31:38;96473.66;;;16.49;81.45
79663;BME280;69130;48.724;8.982;2023-06-26T04:34:04;96484.19;;;16.60;80.33
79663;BME280;69130;48.724;8.982;2023-06-26T04:36:30;96470.72;;;16.71;79.87
79663;BME280;69130;48.724;8.982;2023-06-26T04:38:56;96467.03;;;16.82;79.18
79663;BME280;69130;48.724;8.982;2023-06-26T04:41:22;96465.34;;;16.90;78.65
79663;BME280;69130;48.724;8.982;2023-06-26T04:43:47;96461.75;;;17.09;77.27
79663;BME280;69130;48.724;8.982;2023-06-26T04:46:13;96466.25;;;17.18;77.13
79663;BME280;69130;48.724;8.982;2023-06-26T04:48:38;96464.78;;;17.33;76.22
79663;BME280;69130;48.724;8.982;2023-06-26T04:51:03;96470.25;;;17.41;75.79
79663;BME280;69130;48.724;8.982;2023-06-26T04:53:29;96467.31;;;17.54;74.55
79663;BME280;69130;48.724;8.982;2023-06-26T04:55:54;96468.81;;;17.66;74.26
79663;BME280;69130;48.724;8.982;2023-06-26T04:58:20;96467.91;;;17.75;73.39
79663;BME280;69130;48.724;8.982;2023-06-26T05:00:45;96469.50;;;17.68;74.05
79663;BME280;69130;48.724;8.982;2023-06-26T05:03:15;96464.25;;;17.76;73.93
79663;BME280;69130;48.724;8.982;2023-06-26T05:05:42;96461.53;;;17.85;73.26
79663;BME280;69130;48.724;8.982;2023-06-26T05:10:43;96455.19;;;18.04;72.48
79663;BME280;69130;48.724;8.982;2023-06-26T05:13:09;96459.69;;;18.13;72.00
79663;BME280;69130;48.724;8.982;2023-06-26T05:15:34;96462.56;;;18.19;71.91
79663;BME280;69130;48.724;8.982;2023-06-26T05:18:00;96456.66;;;18.43;70.87
79663;BME280;69130;48.724;8.982;2023-06-26T05:20:25;96465.47;;;18.53;69.78
79663;BME280;69130;48.724;8.982;2023-06-26T05:22:50;96469.16;;;18.70;69.12
79663;BME280;69130;48.724;8.982;2023-06-26T05:25:18;96471.91;;;18.78;68.87
79663;BME280;69130;48.724;8.982;2023-06-26T05:27:46;96468.59;;;18.84;68.34
79663;BME280;69130;48.724;8.982;2023-06-26T05:30:13;96470.66;;;18.90;68.33
79663;BME280;69130;48.724;8.982;2023-06-26T05:32:40;96476.72;;;18.92;68.75
79663;BME280;69130;48.724;8.982;2023-06-26T05:35:06;96467.91;;;18.99;68.42
79663;BME280;69130;48.724;8.982;2023-06-26T05:37:33;96474.75;;;19.20;67.88
79663;BME280;69130;48.724;8.982;2023-06-26T05:39:58;96473.56;;;19.22;67.83
79663;BME280;69130;48.724;8.982;2023-06-26T05:42:26;96466.75;;;19.28;68.13
79663;BME280;69130;48.724;8.982;2023-06-26T05:44:53;96474.41;;;19.40;67.33
79663;BME280;69130;48.724;8.982;2023-06-26T05:47:18;96470.75;;;19.41;67.93
79663;BME280;69130;48.724;8.982;2023-06-26T05:49:43;96471.81;;;19.56;67.97
79663;BME280;69130;48.724;8.982;2023-06-26T05:52:10;96463.94;;;19.55;67.52
79663;BME280;69130;48.724;8.982;2023-06-26T05:54:35;96470.84;;;19.65;67.65
79663;BME280;69130;48.724;8.982;2023-06-26T05:57:01;96472.97;;;19.87;67.10
79663;BME280;69130;48.724;8.982;2023-06-26T05:59:31;96464.69;;;20.07;65.69
79663;BME280;69130;48.724;8.982;2023-06-26T06:01:56;96465.59;;;20.23;64.91
79663;BME280;69130;48.724;8.982;2023-06-26T06:04:22;96463.63;;;20.33;64.24
79663;BME280;69130;48.724;8.982;2023-06-26T06:06:47;96466.81;;;20.45;63.80
79663;BME280;69130;48.724;8.982;2023-06-26T06:09:12;96463.00;;;20.55;63.53
79663;BME280;69130;48.724;8.982;2023-06-26T06:11:38;96459.78;;;20.68;63.45
79663;BME280;69130;48.724;8.982;2023-06-26T06:14:03;96459.13;;;20.82;63.66
79663;BME280;69130;48.724;8.982;2023-06-26T06:16:29;96456.47;;;20.98;62.74
79663;BME280;69130;48.724;8.982;2023-06-26T06:18:55;96463.03;;;21.20;61.96
79663;BME280;69130;48.724;8.982;2023-06-26T06:21:20;96463.03;;;21.28;61.79
79663;BME280;69130;48.724;8.982;2023-06-26T06:23:46;96463.19;;;21.42;60.41
79663;BME280;69130;48.724;8.982;2023-06-26T06:26:11;96464.69;;;21.45;60.52
79663;BME280;69130;48.724;8.982;2023-06-26T06:28:38;96465.34;;;21.55;60.20
79663;BME280;69130;48.724;8.982;2023-06-26T06:31:03;96468.69;;;21.65;60.03
79663;BME280;69130;48.724;8.982;2023-06-26T06:33:28;96464.97;;;21.74;60.30
79663;BME280;69130;48.724;8.982;2023-06-26T06:35:54;96464.28;;;21.88;60.25
79663;BME280;69130;48.724;8.982;2023-06-26T06:38:19;96463.38;;;22.04;59.55
79663;BME280;69130;48.724;8.982;2023-06-26T06:40:45;96469.69;;;22.19;59.15
79663;BME280;69130;48.724;8.982;2023-06-26T06:43:10;96467.25;;;22.32;58.54
79663;BME280;69130;48.724;8.982;2023-06-26T06:45:35;96478.44;;;22.51;57.83
79663;BME280;69130;48.724;8.982;2023-06-26T06:48:03;96476.16;;;22.71;58.26
79663;BME280;69130;48.724;8.982;2023-06-26T06:50:28;96475.53;;;22.92;57.23
79663;BME280;69130;48.724;8.982;2023-06-26T06:52:53;96467.56;;;23.13;56.44
79663;BME280;69130;48.724;8.982;2023-06-26T06:55:22;96472.19;;;23.27;57.02
79663;BME280;69130;48.724;8.982;2023-06-26T06:57:47;96468.19;;;23.46;56.27
79663;BME280;69130;48.724;8.982;2023-06-26T07:00:13;96477.69;;;23.56;56.26
79663;BME280;69130;48.724;8.982;2023-06-26T07:02:43;96472.31;;;23.85;55.76
79663;BME280;69130;48.724;8.982;2023-06-26T07:05:09;96471.59;;;24.06;54.82
79663;BME280;69130;48.724;8.982;2023-06-26T07:07:36;96472.94;;;24.31;54.79
79663;BME280;69130;48.724;8.982;2023-06-26T07:12:31;96466.78;;;25.08;51.28
79663;BME280;69130;48.724;8.982;2023-06-26T07:14:57;96464.88;;;25.51;47.52
79663;BME280;69130;48.724;8.982;2023-06-26T07:17:23;96461.56;;;25.83;46.30
79663;BME280;69130;48.724;8.982;2023-06-26T07:19:49;96471.38;;;26.12;45.53
79663;BME280;69130;48.724;8.982;2023-06-26T07:22:14;96471.09;;;26.41;44.84
79663;BME280;69130;48.724;8.982;2023-06-26T07:24:40;96474.97;;;26.66;43.67
79663;BME280;69130;48.724;8.982;2023-06-26T07:27:08;96475.91;;;26.93;42.47
79663;BME280;69130;48.724;8.982;2023-06-26T07:29:34;96476.59;;;27.15;41.55
79663;BME280;69130;48.724;8.982;2023-06-26T07:31:59;96468.47;;;27.41;41.26
79663;BME280;69130;48.724;8.982;2023-06-26T07:34:24;96478.50;;;27.73;39.34
79663;BME280;69130;48.724;8.982;2023-06-26T07:36:50;96476.81;;;28.05;39.01
79663;BME280;69130;48.724;8.982;2023-06-26T07:39:18;96470.94;;;28.21;37.87
79663;BME280;69130;48.724;8.982;2023-06-26T07:41:43;96472.56;;;28.35;37.45
79663;BME280;69130;48.724;8.982;2023-06-26T07:44:09;96471.25;;;28.57;38.79
79663;BME280;69130;48.724;8.982;2023-06-26T07:46:34;96479.91;;;28.85;36.87
79663;BME280;69130;48.724;8.982;2023-06-26T07:49:00;96479.84;;;28.98;36.98
79663;BME280;69130;48.724;8.982;2023-06-26T07:51:25;96477.50;;;29.08;36.59
79663;BME280;69130;48.724;8.982;2023-06-26T07:53:50;96480.56;;;29.18;36.05
79663;BME280;69130;48.724;8.982;2023-06-26T07:56:16;96477.63;;;29.51;35.26
79663;BME280;69130;48.724;8.982;2023-06-26T07:58:41;96480.22;;;29.64;35.01
79663;BME280;69130;48.724;8.982;2023-06-26T08:01:07;96475.38;;;29.73;34.16
79663;BME280;69130;48.724;8.982;2023-06-26T08:03:32;96472.22;;;29.94;33.93
79663;BME280;69130;48.724;8.982;2023-06-26T08:05:58;96474.97;;;29.94;32.87
79663;BME280;69130;48.724;8.982;2023-06-26T08:08:23;96472.16;;;30.43;33.90
79663;BME280;69130;48.724;8.982;2023-06-26T08:10:48;96472.25;;;30.37;32.17
79663;BME280;69130;48.724;8.982;2023-06-26T08:13:14;96479.97;;;30.40;32.78
79663;BME280;69130;48.724;8.982;2023-06-26T08:15:39;96477.63;;;30.61;32.81
79663;BME280;69130;48.724;8.982;2023-06-26T08:18:04;96467.56;;;31.10;33.19
79663;BME280;69130;48.724;8.982;2023-06-26T08:20:30;96478.31;;;31.34;34.19
79663;BME280;69130;48.724;8.982;2023-06-26T08:22:55;96471.19;;;31.86;32.40
79663;BME280;69130;48.724;8.982;2023-06-26T08:25:20;96473.44;;;31.77;31.96
79663;BME280;69130;48.724;8.982;2023-06-26T08:27:46;96473.97;;;32.09;31.26
79663;BME280;69130;48.724;8.982;2023-06-26T08:30:12;96471.88;;;31.70;30.18
79663;BME280;69130;48.724;8.982;2023-06-26T08:32:38;96471.06;;;31.81;32.58
79663;BME280;69130;48.724;8.982;2023-06-26T08:35:05;96470.88;;;32.06;30.40
79663;BME280;69130;48.724;8.982;2023-06-26T08:37:31;96470.28;;;32.15;30.79
79663;BME280;69130;48.724;8.982;2023-06-26T08:39:58;96467.06;;;32.18;31.95
79663;BME280;69130;48.724;8.982;2023-06-26T08:42:23;96478.59;;;32.09;29.51
79663;BME280;69130;48.724;8.982;2023-06-26T08:44:49;96464.44;;;32.12;30.57
79663;BME280;69130;48.724;8.982;2023-06-26T08:47:14;96468.47;;;32.44;31.12
79663;BME280;69130;48.724;8.982;2023-06-26T08:49:56;96470.84;;;32.63;31.29
79663;BME280;69130;48.724;8.982;2023-06-26T08:52:24;96467.97;;;33.10;30.31
79663;BME280;69130;48.724;8.982;2023-06-26T08:54:55;96469.53;;;33.34;29.26
79663;BME280;69130;48.724;8.982;2023-06-26T08:57:23;96475.31;;;33.21;29.43
79663;BME280;69130;48.724;8.982;2023-06-26T08:59:49;96469.91;;;32.98;30.05
79663;BME280;69130;48.724;8.982;2023-06-26T09:02:15;96471.78;;;32.69;30.31
79663;BME280;69130;48.724;8.982;2023-06-26T09:04:41;96471.75;;;32.81;28.90
79663;BME280;69130;48.724;8.982;2023-06-26T09:07:07;96467.00;;;33.61;30.05
79663;BME280;69130;48.724;8.982;2023-06-26T09:09:33;96473.25;;;33.56;27.25
79663;BME280;69130;48.724;8.982;2023-06-26T09:11:58;96469.38;;;33.40;27.97
79663;BME280;69130;48.724;8.982;2023-06-26T09:14:24;96467.59;;;32.67;28.10
79663;BME280;69130;48.724;8.982;2023-06-26T09:16:49;96466.69;;;32.49;29.59
79663;BME280;69130;48.724;8.982;2023-06-26T09:19:15;96467.75;;;31.91;28.50
79663;BME280;69130;48.724;8.982;2023-06-26T09:21:42;96464.78;;;32.15;31.42
79663;BME280;69130;48.724;8.982;2023-06-26T09:24:08;96463.59;;;32.23;29.48
79663;BME280;69130;48.724;8.982;2023-06-26T09:26:38;96473.75;;;31.17;30.27
79663;BME280;69130;48.724;8.982;2023-06-26T09:29:04;96464.78;;;30.62;31.27
79663;BME280;69130;48.724;8.982;2023-06-26T09:31:30;96460.31;;;30.31;33.54
79663;BME280;69130;48.724;8.982;2023-06-26T09:33:58;96466.94;;;30.60;32.55
79663;BME280;69130;48.724;8.982;2023-06-26T09:36:33;96464.25;;;30.53;31.71
79663;BME280;69130;48.724;8.982;2023-06-26T09:39:04;96468.16;;;30.46;33.52
79663;BME280;69130;48.724;8.982;2023-06-26T09:41:33;96464.69;;;30.14;33.07
79663;BME280;69130;48.724;8.982;2023-06-26T09:44:01;96458.59;;;29.69;32.30
79663;BME280;69130;48.724;8.982;2023-06-26T09:46:28;96453.13;;;29.45;33.43
79663;BME280;69130;48.724;8.982;2023-06-26T09:49:05;96460.59;;;29.56;35.94
79663;BME280;69130;48.724;8.982;2023-06-26T09:51:31;96454.97;;;30.00;34.16
79663;BME280;69130;48.724;8.982;2023-06-26T09:53:58;96456.94;;;31.02;31.52
79663;BME280;69130;48.724;8.982;2023-06-26T09:56:28;96448.59;;;30.96;29.63
79663;BME280;69130;48.724;8.982;2023-06-26T09:58:58;96456.59;;;32.04;30.09
79663;BME280;69130;48.724;8.982;2023-06-26T10:01:25;96456.00;;;32.02;30.29
79663;BME280;69130;48.724;8.982;2023-06-26T10:04:05;96459.09;;;31.94;29.13
79663;BME280;69130;48.724;8.982;2023-06-26T10:06:49;96455.16;;;32.47;28.93
79663;BME280;69130;48.724;8.982;2023-06-26T10:09:24;96456.41;;;31.87;30.80
79663;BME280;69130;48.724;8.982;2023-06-26T10:12:06;96461.50;;;31.49;30.71
79663;BME280;69130;48.724;8.982;2023-06-26T10:14:39;96463.03;;;30.85;31.66
79663;BME280;69130;48.724;8.982;2023-06-26T10:17:11;96462.13;;;31.21;33.49
79663;BME280;69130;48.724;8.982;2023-06-26T10:19:42;96475.75;;;31.92;32.87
79663;BME280;69130;48.724;8.982;2023-06-26T10:22:09;96485.81;;;31.68;33.47
79663;BME280;69130;48.724;8.982;2023-06-26T10:24:40;96487.03;;;30.83;35.27
79663;BME280;69130;48.724;8.982;2023-06-26T10:27:16;96482.81;;;30.81;35.95
79663;BME280;69130;48.724;8.982;2023-06-26T10:29:44;96492.28;;;30.85;36.35
79663;BME280;69130;48.724;8.982;2023-06-26T10:32:12;96497.94;;;31.31;36.03
79663;BME280;69130;48.724;8.982;2023-06-26T10:34:39;96497.34;;;30.63;36.61
79663;BME280;69130;48.724;8.982;2023-06-26T10:37:04;96494.09;;;30.12;37.22
79663;BME280;69130;48.724;8.982;2023-06-26T10:42:10;96505.81;;;29.94;37.74
79663;BME280;69130;48.724;8.982;2023-06-26T10:44:46;96509.81;;;29.92;37.83
79663;BME280;69130;48.724;8.982;2023-06-26T10:47:31;96508.28;;;30.02;37.39
79663;BME280;69130;48.724;8.982;2023-06-26T10:50:16;96503.38;;;30.11;38.63
79663;BME280;69130;48.724;8.982;2023-06-26T10:52:42;96503.44;;;30.04;38.44
79663;BME280;69130;48.724;8.982;2023-06-26T10:55:08;96501.41;;;30.18;37.59
79663;BME280;69130;48.724;8.982;2023-06-26T10:57:36;96507.44;;;30.63;37.98
79663;BME280;69130;48.724;8.982;2023-06-26T11:00:14;96513.66;;;30.52;37.54
79663;BME280;69130;48.724;8.982;2023-06-26T11:02:49;96519.81;;;30.47;36.73
79663;BME280;69130;48.724;8.982;2023-06-26T11:05:29;96525.41;;;30.70;36.76
79663;BME280;69130;48.724;8.982;2023-06-26T11:08:08;96522.53;;;30.65;36.18
79663;BME280;69130;48.724;8.982;2023-06-26T11:10:54;96516.84;;;30.49;34.96
79663;BME280;69130;48.724;8.982;2023-06-26T11:13:25;96516.41;;;30.09;36.71
79663;BME280;69130;48.724;8.982;2023-06-26T11:15:51;96517.91;;;30.48;36.62
79663;BME280;69130;48.724;8.982;2023-06-26T11:18:17;96514.56;;;31.00;35.97
79663;BME280;69130;48.724;8.982;2023-06-26T11:20:42;96522.13;;;31.16;36.25
79663;BME280;69130;48.724;8.982;2023-06-26T11:23:08;96511.97;;;31.53;35.62
79663;BME280;69130;48.724;8.982;2023-06-26T11:25:38;96518.47;;;31.52;36.24
79663;BME280;69130;48.724;8.982;2023-06-26T11:28:09;96521.72;;;31.01;36.90
79663;BME280;69130;48.724;8.982;2023-06-26T11:30:34;96525.72;;;30.80;36.91
79663;BME280;69130;48.724;8.982;2023-06-26T11:33:13;96525.38;;;31.25;37.32
79663;BME280;69130;48.724;8.982;2023-06-26T11:35:40;96532.47;;;30.96;35.97
79663;BME280;69130;48.724;8.982;2023-06-26T11:38:06;96533.78;;;31.12;36.71
79663;BME280;69130;48.724;8.982;2023-06-26T11:40:33;96528.75;;;30.72;35.87
79663;BME280;69130;48.724;8.982;2023-06-26T11:43:01;96532.25;;;30.79;36.98
79663;BME280;69130;48.724;8.982;2023-06-26T11:45:31;96542.53;;;29.98;37.45
79663;BME280;69130;48.724;8.982;2023-06-26T11:47:59;96535.66;;;29.34;38.10
79663;BME280;69130;48.724;8.982;2023-06-26T11:50:25;96544.50;;;29.22;39.28
79663;BME280;69130;48.724;8.982;2023-06-26T11:53:09;96541.94;;;28.90;39.78
79663;BME280;69130;48.724;8.982;2023-06-26T11:55:47;96542.94;;;28.95;41.13
79663;BME280;69130;48.724;8.982;2023-06-26T12:01:24;96537.66;;;29.13;41.33
79663;BME280;69130;48.724;8.982;2023-06-26T12:04:05;96545.47;;;29.66;41.40
79663;BME280;69130;48.724;8.982;2023-06-26T12:06:42;96535.72;;;30.07;40.71
79663;BME280;69130;48.724;8.982;2023-06-26T12:09:20;96539.16;;;30.46;39.80
79663;BME280;69130;48.724;8.982;2023-06-26T12:12:00;96548.00;;;30.84;39.17
79663;BME280;69130;48.724;8.982;2023-06-26T12:14:55;96536.34;;;31.07;38.87
79663;BME280;69130;48.724;8.982;2023-06-26T12:17:30;96553.31;;;31.27;38.03
79663;BME280;69130;48.724;8.982;2023-06-26T12:19:55;96547.94;;;31.20;37.41
79663;BME280;69130;48.724;8.982;2023-06-26T12:22:21;96546.25;;;30.89;37.59
79663;BME280;69130;48.724;8.982;2023-06-26T12:24:47;96549.38;;;30.32;38.33
79663;BME280;69130;48.724;8.982;2023-06-26T12:27:14;96547.53;;;30.26;39.99
79663;BME280;69130;48.724;8.982;2023-06-26T12:29:49;96551.06;;;30.69;39.54
79663;BME280;69130;48.724;8.982;2023-06-26T12:32:16;96548.66;;;30.79;38.46
79663;BME280;69130;48.724;8.982;2023-06-26T12:34:41;96564.13;;;30.67;38.78
79663;BME280;69130;48.724;8.982;2023-06-26T12:37:08;96541.94;;;30.39;39.66
79663;BME280;69130;48.724;8.982;2023-06-26T12:39:54;96551.31;;;30.50;39.42
79663;BME280;69130;48.724;8.982;2023-06-26T12:42:21;96545.38;;;30.71;40.15
79663;BME280;69130;48.724;8.982;2023-06-26T12:44:48;96550.38;;;31.10;40.13
79663;BME280;69130;48.724;8.982;2023-06-26T12:47:15;96553.38;;;30.90;39.26
79663;BME280;69130;48.724;8.982;2023-06-26T12:49:43;96546.69;;;30.86;38.98
79663;BME280;69130;48.724;8.982;2023-06-26T12:52:13;96551.03;;;31.24;38.13
79663;BME280;69130;48.724;8.982;2023-06-26T12:54:40;96552.38;;;31.03;38.05
79663;BME280;69130;48.724;8.982;2023-06-26T12:57:06;96544.28;;;31.26;37.91
79663;BME280;69130;48.724;8.982;2023-06-26T12:59:37;96549.91;;;31.31;37.21
79663;BME280;69130;48.724;8.982;2023-06-26T13:02:09;96545.84;;;31.34;37.64
79663;BME280;69130;48.724;8.982;2023-06-26T13:04:43;96547.31;;;30.88;37.23
79663;BME280;69130;48.724;8.982;2023-06-26T13:07:10;96549.03;;;30.83;37.08
79663;BME280;69130;48.724;8.982;2023-06-26T13:09:48;96541.75;;;31.13;37.79
79663;BME280;69130;48.724;8.982;2023-06-26T13:12:23;96548.06;;;30.95;37.21
79663;BME280;69130;48.724;8.982;2023-06-26T13:14:57;96557.69;;;30.80;37.83
79663;BME280;69130;48.724;8.982;2023-06-26T13:20:19;96547.41;;;30.39;37.19
79663;BME280;69130;48.724;8.982;2023-06-26T13:22:58;96538.75;;;30.78;37.12